Time;durP1;ratioP1;P1;durP2;ratioP2;P2;SDS_P1;SDS_P2;PMS_P1;PMS_P2;Temp;Humidity;BMP_temperature;BMP_pressure;BME280_temperature;BME280_humidity;BME280_pressure;Samples;Min_cycle;Max_cycle;Signal;HPM_P1;HPM_P2
2022/04/06 00:02:08;;;;;;;;;;;;;;;16.00;39.31;98525.00;4457978;32;34429;-81
2022/04/06 00:04:36;;;;;;;;;;;;;;;16.22;38.69;98528.03;4459715;32;33482;-81
2022/04/06 00:07:04;;;;;;;;;;;;;;;16.39;38.30;98531.16;4450707;32;34903;-81
2022/04/06 00:09:31;;;;;;;;;;;;;;;15.78;39.45;98529.75;4451396;32;35243;-80
2022/04/06 00:11:59;;;;;;;;;;;;;;;16.19;38.75;98539.41;4456522;32;34442;-81
2022/04/06 00:14:26;;;;;;;;;;;;;;;16.12;38.82;98536.97;4460846;32;33084;-81
2022/04/06 00:16:54;;;;;;;;;;;;;;;16.28;38.33;98531.38;4452490;32;33707;-81
2022/04/06 00:19:21;;;;;;;;;;;;;;;15.40;39.84;98543.47;4466390;32;34076;-80
2022/04/06 00:21:48;;;;;;;;;;;;;;;15.87;39.07;98547.00;4455126;32;34442;-82
2022/04/06 00:24:16;;;;;;;;;;;;;;;16.03;38.76;98544.09;4455438;32;33727;-80
2022/04/06 00:26:43;;;;;;;;;;;;;;;16.03;38.76;98544.09;4466811;32;34056;-80
2022/04/06 00:29:10;;;;;;;;;;;;;;;15.57;39.42;98547.53;4464517;32;34305;-81
2022/04/06 00:31:37;;;;;;;;;;;;;;;15.48;39.95;98550.28;4465600;32;34269;-81
2022/04/06 00:34:05;;;;;;;;;;;;;;;15.45;39.95;98555.53;4463846;32;34236;-81
2022/04/06 00:36:32;;;;;;;;;;;;;;;15.56;39.78;98548.38;4465918;32;35139;-81
2022/04/06 00:38:59;;;;;;;;;;;;;;;15.16;40.85;98555.16;4466340;32;34213;-80
2022/04/06 00:41:27;;;;;;;;;;;;;;;15.21;40.95;98554.19;4465923;32;34367;-81
2022/04/06 00:44:12;;;;;;;;;;;;;;;14.88;41.62;98560.78;4460249;32;33622;-81
2022/04/06 00:46:40;;;;;;;;;;;;;;;15.30;40.78;98558.41;4465965;32;33919;-81
2022/04/06 00:49:11;;;;;;;;;;;;;;;15.20;41.01;98559.47;4452100;32;33972;-80
2022/04/06 00:51:39;;;;;;;;;;;;;;;14.70;41.88;98555.81;4460159;32;35131;-84
2022/04/06 00:54:07;;;;;;;;;;;;;;;14.59;42.24;98556.84;4459558;32;34388;-80
2022/04/06 00:56:34;;;;;;;;;;;;;;;14.98;41.45;98554.56;4452230;32;34559;-81
2022/04/06 00:59:01;;;;;;;;;;;;;;;15.15;41.04;98556.03;4456296;32;33869;-80
2022/04/06 01:01:29;;;;;;;;;;;;;;;15.31;40.54;98552.31;4445003;32;34270;-80
2022/04/06 01:03:56;;;;;;;;;;;;;;;14.86;41.41;98552.13;4451094;32;33337;-80
2022/04/06 01:06:23;;;;;;;;;;;;;;;15.45;40.12;98550.31;4450702;32;35093;-81
2022/04/06 01:08:52;;;;;;;;;;;;;;;15.57;39.69;98544.03;4448932;32;34118;-82
2022/04/06 01:11:19;;;;;;;;;;;;;;;15.80;39.23;98543.66;4450465;32;34530;-81
2022/04/06 01:13:47;;;;;;;;;;;;;;;14.76;41.43;98558.34;4450394;32;33578;-82
2022/04/06 01:16:14;;;;;;;;;;;;;;;15.14;41.10;98556.94;4464397;32;32780;-81
2022/04/06 01:18:42;;;;;;;;;;;;;;;15.52;40.35;98557.16;4455701;32;34487;-81
2022/04/06 01:21:11;;;;;;;;;;;;;;;15.88;39.76;98556.59;4462763;32;35000;-81
2022/04/06 01:23:40;;;;;;;;;;;;;;;16.02;39.40;98557.19;4468283;32;34287;-82
2022/04/06 01:26:08;;;;;;;;;;;;;;;15.57;39.99;98565.81;4466967;32;34106;-81
2022/04/06 01:28:36;;;;;;;;;;;;;;;15.74;39.82;98565.53;4468006;32;34157;-80
2022/04/06 01:31:03;;;;;;;;;;;;;;;16.08;39.20;98551.00;4455617;32;34228;-82
2022/04/06 01:33:30;;;;;;;;;;;;;;;16.19;39.02;98551.63;4453597;32;33831;-81
2022/04/06 01:35:59;;;;;;;;;;;;;;;16.30;38.97;98557.53;4453014;32;33611;-83
2022/04/06 01:38:26;;;;;;;;;;;;;;;16.18;39.42;98556.00;4451327;32;34481;-82
2022/04/06 01:40:54;;;;;;;;;;;;;;;15.84;40.50;98554.94;4463600;32;34616;-81
2022/04/06 01:43:21;;;;;;;;;;;;;;;14.99;42.91;98553.66;4467620;32;33705;-81
2022/04/06 01:45:49;;;;;;;;;;;;;;;15.57;41.92;98557.09;4466528;32;34226;-80
2022/04/06 01:48:19;;;;;;;;;;;;;;;15.84;41.15;98550.56;4464698;32;34288;-81
2022/04/06 01:53:32;;;;;;;;;;;;;;;15.19;42.83;98549.88;4462649;32;33764;-81
2022/04/06 01:55:59;;;;;;;;;;;;;;;15.42;42.42;98554.72;4452643;32;33930;-83
2022/04/06 01:58:26;;;;;;;;;;;;;;;15.63;41.75;98556.97;4452664;32;34799;-81
2022/04/06 02:00:54;;;;;;;;;;;;;;;15.68;41.47;98554.31;4462709;32;34611;-80
2022/04/06 02:03:21;;;;;;;;;;;;;;;15.25;42.40;98557.62;4467770;32;33036;-82
2022/04/06 02:05:49;;;;;;;;;;;;;;;15.41;42.19;98548.66;4462227;32;35097;-81
2022/04/06 02:08:17;;;;;;;;;;;;;;;15.50;41.83;98548.50;4452375;32;35214;-81
2022/04/06 02:10:44;;;;;;;;;;;;;;;15.26;42.42;98546.28;4466171;32;35927;-81
2022/04/06 02:13:11;;;;;;;;;;;;;;;15.70;41.61;98544.72;4464096;32;34186;-81
2022/04/06 02:15:40;;;;;;;;;;;;;;;16.05;40.78;98533.59;4467667;32;34649;-81
2022/04/06 02:18:07;;;;;;;;;;;;;;;16.34;40.19;98526.94;4459208;32;34681;-81
2022/04/06 02:20:35;;;;;;;;;;;;;;;16.34;40.20;98527.78;4453016;32;34539;-82
2022/04/06 02:23:02;;;;;;;;;;;;;;;16.21;40.29;98532.41;4463609;32;33653;-80
2022/04/06 02:25:29;;;;;;;;;;;;;;;15.88;41.22;98533.94;4454245;32;34078;-81
2022/04/06 02:27:57;;;;;;;;;;;;;;;15.63;41.42;98548.28;4459705;32;34171;-81
2022/04/06 02:30:24;;;;;;;;;;;;;;;16.03;40.73;98530.16;4465991;32;35764;-81
2022/04/06 02:32:51;;;;;;;;;;;;;;;15.56;41.40;98551.00;4467674;32;33407;-81
2022/04/06 02:35:18;;;;;;;;;;;;;;;15.63;41.45;98548.28;4455592;32;33765;-83
2022/04/06 02:37:46;;;;;;;;;;;;;;;15.71;41.03;98552.50;4450557;32;34452;-81
2022/04/06 02:40:13;;;;;;;;;;;;;;;15.37;41.55;98546.97;4450948;32;34104;-81
2022/04/06 02:42:41;;;;;;;;;;;;;;;15.26;41.76;98546.28;4452083;32;33685;-81
2022/04/06 02:45:09;;;;;;;;;;;;;;;15.40;41.25;98552.16;4453308;32;34097;-80
2022/04/06 02:47:36;;;;;;;;;;;;;;;15.18;41.50;98540.31;4466848;32;35198;-81
2022/04/06 02:50:04;;;;;;;;;;;;;;;15.54;40.66;98533.66;4466408;32;35423;-81
2022/04/06 02:52:32;;;;;;;;;;;;;;;14.80;41.95;98545.22;4449983;32;33651;-81
2022/04/06 02:54:59;;;;;;;;;;;;;;;14.79;42.13;98548.72;4461326;32;34832;-81
2022/04/06 02:57:26;;;;;;;;;;;;;;;15.03;41.75;98550.12;4463345;32;34431;-81
2022/04/06 02:59:54;;;;;;;;;;;;;;;15.09;41.44;98544.81;4452525;32;34356;-80
2022/04/06 03:02:21;;;;;;;;;;;;;;;15.33;40.80;98550.53;4452438;32;33670;-81
2022/04/06 03:04:48;;;;;;;;;;;;;;;15.19;41.19;98547.25;4459032;32;34185;-80
2022/04/06 03:07:19;;;;;;;;;;;;;;;15.24;41.02;98554.16;4465728;32;34371;-82
2022/04/06 03:09:46;;;;;;;;;;;;;;;15.01;41.53;98562.34;4458769;32;34536;-81
2022/04/06 03:12:14;;;;;;;;;;;;;;;14.86;42.02;98561.72;4458553;32;34616;-82
2022/04/06 03:14:41;;;;;;;;;;;;;;;15.22;41.51;98560.28;4452498;32;34181;-81
2022/04/06 03:17:08;;;;;;;;;;;;;;;15.53;40.76;98560.63;4451590;32;35034;-82
2022/04/06 03:19:36;;;;;;;;;;;;;;;15.60;40.58;98561.41;4451867;32;34274;-81
2022/04/06 03:22:03;;;;;;;;;;;;;;;15.28;41.19;98561.06;4455010;32;32975;-82
2022/04/06 03:24:30;;;;;;;;;;;;;;;15.49;40.95;98552.03;4454484;32;33489;-81
2022/04/06 03:26:58;;;;;;;;;;;;;;;15.65;40.68;98562.22;4451896;32;34454;-80
2022/04/06 03:29:25;;;;;;;;;;;;;;;15.37;41.16;98554.81;4451838;32;35191;-81
2022/04/06 03:31:53;;;;;;;;;;;;;;;15.84;40.21;98553.19;4452701;32;34510;-81
2022/04/06 03:34:20;;;;;;;;;;;;;;;15.56;40.92;98553.59;4462244;32;34243;-81
2022/04/06 03:36:47;;;;;;;;;;;;;;;15.49;41.21;98546.78;4465432;32;34237;-82
2022/04/06 03:39:15;;;;;;;;;;;;;;;15.95;40.31;98551.22;4466465;32;34569;-80
2022/04/06 03:41:42;;;;;;;;;;;;;;;15.56;41.15;98553.59;4466239;32;33471;-82
2022/04/06 03:44:09;;;;;;;;;;;;;;;15.85;40.50;98548.81;4450224;32;34849;-81
2022/04/06 03:46:36;;;;;;;;;;;;;;;16.02;39.92;98544.09;4453782;32;34296;-81
2022/04/06 03:49:07;;;;;;;;;;;;;;;16.12;39.69;98545.66;4460513;32;35232;-83
2022/04/06 03:51:35;;;;;;;;;;;;;;;15.96;39.93;98552.94;4453401;32;33607;-81
2022/04/06 03:54:03;;;;;;;;;;;;;;;15.83;40.13;98556.66;4451354;32;34122;-81
2022/04/06 03:56:30;;;;;;;;;;;;;;;16.13;39.40;98560.44;4461781;32;35297;-81
2022/04/06 03:58:57;;;;;;;;;;;;;;;16.11;39.39;98566.63;4461955;32;34296;-81
2022/04/06 04:01:24;;;;;;;;;;;;;;;15.81;39.98;98567.16;4459517;32;33736;-80
2022/04/06 04:03:53;;;;;;;;;;;;;;;16.15;39.38;98557.81;4453233;32;34332;-80
2022/04/06 04:06:20;;;;;;;;;;;;;;;16.07;39.64;98551.88;4456973;32;33915;-80
2022/04/06 04:08:47;;;;;;;;;;;;;;;15.97;39.92;98548.56;4464414;32;35296;-82
2022/04/06 04:11:14;;;;;;;;;;;;;;;15.96;40.08;98552.94;4457288;32;33809;-81
2022/04/06 04:13:41;;;;;;;;;;;;;;;15.89;40.32;98561.78;4444117;32;32204;-81
2022/04/06 04:16:09;;;;;;;;;;;;;;;15.73;40.73;98562.97;4451363;32;32822;-81
2022/04/06 04:18:36;;;;;;;;;;;;;;;16.03;40.30;98565.00;4452076;32;34137;-80
2022/04/06 04:23:49;;;;;;;;;;;;;;;15.41;42.14;98566.06;4458577;32;32542;-80
2022/04/06 04:26:17;;;;;;;;;;;;;;;15.82;41.48;98554.94;4456900;32;34547;-81
2022/04/06 04:28:44;;;;;;;;;;;;;;;15.96;41.38;98555.56;4456984;32;34571;-80
2022/04/06 04:31:11;;;;;;;;;;;;;;;15.89;41.58;98567.00;4466594;32;33638;-80
2022/04/06 04:33:38;;;;;;;;;;;;;;;16.25;41.00;98555.00;4453674;32;34975;-81
2022/04/06 04:36:06;;;;;;;;;;;;;;;15.72;42.44;98571.66;4455592;32;33879;-81
2022/04/06 04:38:33;;;;;;;;;;;;;;;15.95;42.07;98569.53;4466303;32;35218;-82
2022/04/06 04:41:01;;;;;;;;;;;;;;;16.13;41.81;98581.38;4466718;32;35408;-82
2022/04/06 04:43:28;;;;;;;;;;;;;;;16.05;42.23;98578.03;4454961;32;35060;-82
2022/04/06 04:45:56;;;;;;;;;;;;;;;16.21;42.10;98589.06;4451267;32;33993;-82
2022/04/06 04:48:23;;;;;;;;;;;;;;;16.46;41.57;98574.63;4440089;32;33590;-80
2022/04/06 04:50:50;;;;;;;;;;;;;;;16.43;41.73;98581.66;4459131;32;33445;-84
2022/04/06 04:53:18;;;;;;;;;;;;;;;16.59;41.42;98575.22;4467090;32;34326;-84
2022/04/06 04:55:45;;;;;;;;;;;;;;;16.38;41.71;98576.53;4468574;32;35156;-84
2022/04/06 04:58:12;;;;;;;;;;;;;;;16.62;41.22;98574.31;4468457;32;34242;-82
2022/04/06 05:00:40;;;;;;;;;;;;;;;16.67;40.96;98580.31;4468588;32;33524;-83
2022/04/06 05:03:08;;;;;;;;;;;;;;;16.81;40.86;98578.28;4453743;32;34047;-83
2022/04/06 05:05:39;;;;;;;;;;;;;;;16.93;40.73;98585.88;4468619;32;34510;-83
2022/04/06 05:08:07;;;;;;;;;;;;;;;17.12;40.29;98585.44;4462584;32;35230;-82
2022/04/06 05:10:34;;;;;;;;;;;;;;;16.97;40.58;98590.16;4460702;32;33039;-82
2022/04/06 05:13:01;;;;;;;;;;;;;;;16.50;42.19;98597.22;4458261;32;33841;-81
2022/04/06 05:15:29;;;;;;;;;;;;;;;16.95;41.24;98589.31;4438899;32;34104;-81
2022/04/06 05:17:56;;;;;;;;;;;;;;;17.09;41.13;98591.63;4452892;32;34033;-81
2022/04/06 05:20:23;;;;;;;;;;;;;;;16.63;42.20;98592.59;4453575;32;34628;-81
2022/04/06 05:22:51;;;;;;;;;;;;;;;16.94;41.73;98598.06;4452733;32;34349;-81
2022/04/06 05:25:18;;;;;;;;;;;;;;;17.38;40.91;98590.94;4458539;32;34513;-81
2022/04/06 05:27:52;;;;;;;;;;;;;;;17.03;41.75;98592.63;4453193;32;35515;-82
2022/04/06 05:30:20;;;;;;;;;;;;;;;17.28;41.29;98597.31;4452849;32;33693;-82
2022/04/06 05:32:48;;;;;;;;;;;;;;;17.45;41.18;98595.12;4439573;32;34495;-82
2022/04/06 05:35:15;;;;;;;;;;;;;;;16.82;42.70;98593.13;4463992;32;34314;-82
2022/04/06 05:37:43;;;;;;;;;;;;;;;17.24;41.89;98603.53;4452628;32;34131;-81
2022/04/06 05:40:12;;;;;;;;;;;;;;;17.81;40.75;98607.41;4452833;32;33252;-82
2022/04/06 05:42:39;;;;;;;;;;;;;;;17.98;40.62;98610.44;4452903;32;33966;-80
2022/04/06 05:45:06;;;;;;;;;;;;;;;17.25;41.97;98618.34;4468273;32;33990;-82
2022/04/06 05:47:34;;;;;;;;;;;;;;;17.85;40.24;98617.78;4466448;32;34954;-81
2022/04/06 05:50:01;;;;;;;;;;;;;;;17.86;39.30;98614.25;4468222;32;33804;-81
2022/04/06 05:52:29;;;;;;;;;;;;;;;17.68;39.14;98612.06;4466735;32;34126;-81
2022/04/06 05:54:56;;;;;;;;;;;;;;;18.12;38.42;98626.69;4467903;32;34296;-81
2022/04/06 05:57:23;;;;;;;;;;;;;;;18.28;38.41;98629.78;4468200;32;35273;-82
2022/04/06 05:59:51;;;;;;;;;;;;;;;18.13;38.18;98627.56;4468475;32;33792;-81
2022/04/06 06:02:19;;;;;;;;;;;;;;;17.16;40.17;98623.75;4461938;32;35310;-81
2022/04/06 06:04:46;;;;;;;;;;;;;;;18.09;38.35;98634.63;4437950;32;33718;-81
2022/04/06 06:07:13;;;;;;;;;;;;;;;17.73;38.59;98639.91;4452351;32;34590;-80
2022/04/06 06:09:40;;;;;;;;;;;;;;;17.27;39.79;98632.25;4452458;32;33456;-80
2022/04/06 06:12:08;;;;;;;;;;;;;;;17.13;39.68;98629.09;4455381;32;34310;-80
2022/04/06 06:14:35;;;;;;;;;;;;;;;17.62;38.97;98627.97;4459294;32;34423;-80
2022/04/06 06:17:02;;;;;;;;;;;;;;;18.03;38.15;98629.53;4468051;32;35311;-79
2022/04/06 06:19:30;;;;;;;;;;;;;;;17.94;38.05;98625.41;4464732;32;33586;-81
2022/04/06 06:21:57;;;;;;;;;;;;;;;17.55;38.88;98634.25;4452978;32;35060;-81
2022/04/06 06:24:24;;;;;;;;;;;;;;;17.74;38.36;98640.75;4452429;32;35198;-82
2022/04/06 06:26:53;;;;;;;;;;;;;;;17.88;38.33;98633.44;4452396;32;35307;-81
2022/04/06 06:29:21;;;;;;;;;;;;;;;18.14;37.72;98634.50;4459061;32;33646;-81
2022/04/06 06:31:48;;;;;;;;;;;;;;;17.88;38.56;98622.97;4460404;32;33248;-82
2022/04/06 06:34:16;;;;;;;;;;;;;;;18.01;38.09;98636.59;4452132;32;35133;-83
2022/04/06 06:36:43;;;;;;;;;;;;;;;17.69;38.77;98626.88;4455064;32;34451;-80
2022/04/06 06:39:10;;;;;;;;;;;;;;;17.46;39.60;98633.56;4452949;32;33637;-80
2022/04/06 06:41:38;;;;;;;;;;;;;;;17.36;39.94;98626.81;4459997;32;34344;-80
2022/04/06 06:44:05;;;;;;;;;;;;;;;16.82;41.01;98631.50;4467955;32;35437;-80
2022/04/06 06:46:32;;;;;;;;;;;;;;;17.12;40.41;98630.84;4467728;32;34517;-82
2022/04/06 06:49:03;;;;;;;;;;;;;;;17.63;39.39;98625.28;4466379;32;34353;-79
2022/04/06 06:51:30;;;;;;;;;;;;;;;17.26;40.04;98620.91;4467864;32;34903;-81
2022/04/06 06:53:58;;;;;;;;;;;;;;;17.83;38.73;98635.31;4467722;32;33855;-81
2022/04/06 06:56:26;;;;;;;;;;;;;;;18.11;38.15;98629.37;4467792;32;34709;-81
2022/04/06 06:58:53;;;;;;;;;;;;;;;18.01;37.98;98627.88;4467704;32;33404;-81
2022/04/06 07:01:21;;;;;;;;;;;;;;;17.54;39.33;98627.25;4453721;32;34080;-81
2022/04/06 07:03:48;;;;;;;;;;;;;;;17.64;38.89;98623.53;4467631;32;35254;-81
2022/04/06 07:06:16;;;;;;;;;;;;;;;17.25;39.56;98628.81;4467845;32;34998;-81
2022/04/06 07:08:43;;;;;;;;;;;;;;;17.52;38.69;98624.69;4467513;32;33401;-81
2022/04/06 07:11:10;;;;;;;;;;;;;;;18.23;37.73;98619.41;4468162;32;34084;-81
2022/04/06 07:13:38;;;;;;;;;;;;;;;18.36;37.75;98624.31;4467890;32;35017;-81
2022/04/06 07:16:06;;;;;;;;;;;;;;;18.60;37.24;98620.13;4467522;32;34774;-81
2022/04/06 07:18:34;;;;;;;;;;;;;;;18.03;38.16;98628.69;4467674;32;33490;-82
2022/04/06 07:21:01;;;;;;;;;;;;;;;18.20;36.94;98632.59;4453562;32;34276;-84
2022/04/06 07:23:28;;;;;;;;;;;;;;;18.09;36.82;98629.41;4467402;32;34137;-81
2022/04/06 07:25:56;;;;;;;;;;;;;;;17.44;37.95;98629.25;4467879;32;35456;-81
2022/04/06 07:28:23;;;;;;;;;;;;;;;17.61;38.29;98632.31;4467625;32;33832;-87
2022/04/06 07:30:50;;;;;;;;;;;;;;;17.90;37.67;98629.00;4467306;32;34807;-81
2022/04/06 07:33:17;;;;;;;;;;;;;;;18.33;36.41;98627.88;4467275;32;35308;-83
2022/04/06 07:35:46;;;;;;;;;;;;;;;18.45;36.09;98627.56;4467447;32;35364;-81
2022/04/06 07:38:14;;;;;;;;;;;;;;;18.23;36.41;98629.03;4467435;32;34338;-78
2022/04/06 07:40:41;;;;;;;;;;;;;;;18.00;37.03;98632.28;4467501;32;34980;-82
2022/04/06 07:43:10;;;;;;;;;;;;;;;18.13;37.12;98636.28;4467493;32;34464;-81
2022/04/06 07:45:38;;;;;;;;;;;;;;;18.23;37.07;98637.78;4467510;32;34545;-82
2022/04/06 07:48:05;;;;;;;;;;;;;;;18.91;36.40;98635.91;4453294;32;33671;-82
2022/04/06 07:50:32;;;;;;;;;;;;;;;19.81;34.67;98635.75;4467755;32;34243;-81
2022/04/06 07:53:00;;;;;;;;;;;;;;;19.69;34.73;98633.50;4467262;32;35242;-88
2022/04/06 07:55:27;;;;;;;;;;;;;;;19.24;34.93;98636.66;4467353;32;34471;-81
2022/04/06 07:57:55;;;;;;;;;;;;;;;19.31;35.43;98639.97;4467237;32;33442;-81
2022/04/06 08:00:22;;;;;;;;;;;;;;;19.45;35.20;98648.28;4467427;32;34269;-85
2022/04/06 08:02:50;;;;;;;;;;;;;;;19.64;35.05;98638.06;4467068;32;34289;-82
2022/04/06 08:05:18;;;;;;;;;;;;;;;18.50;37.11;98639.69;4466976;32;34837;-82
2022/04/06 08:07:48;;;;;;;;;;;;;;;18.67;37.20;98643.53;4452363;32;32706;-82
2022/04/06 08:10:16;;;;;;;;;;;;;;;18.96;36.38;98639.25;4453093;32;34000;-82
2022/04/06 08:12:43;;;;;;;;;;;;;;;18.92;36.67;98642.88;4466927;32;35382;-81
2022/04/06 08:15:11;;;;;;;;;;;;;;;17.88;39.13;98641.31;4467037;32;34534;-82
2022/04/06 08:17:39;;;;;;;;;;;;;;;18.61;38.21;98637.63;4466812;32;34470;-81
2022/04/06 08:20:08;;;;;;;;;;;;;;;18.95;37.39;98638.41;4466815;32;34086;-83
2022/04/06 08:22:37;;;;;;;;;;;;;;;19.42;37.24;98638.72;4467432;32;34391;-82
2022/04/06 08:25:05;;;;;;;;;;;;;;;18.78;37.66;98643.28;4466934;32;35115;-81
2022/04/06 08:27:52;;;;;;;;;;;;;;;19.52;36.90;98633.19;4467617;32;33326;-81
2022/04/06 08:30:22;;;;;;;;;;;;;;;20.06;35.94;98637.56;4468723;32;34278;-82
2022/04/06 08:32:50;;;;;;;;;;;;;;;18.78;38.30;98637.16;4468896;32;34102;-82
2022/04/06 08:35:19;;;;;;;;;;;;;;;18.45;39.44;98637.19;4468879;32;35344;-81
2022/04/06 08:37:47;;;;;;;;;;;;;;;19.49;36.46;98643.78;4469082;32;33621;-81
2022/04/06 08:44:01;;;;;;;;;;;;;;;19.85;36.80;98642.63;4469167;32;34376;-88
2022/04/06 08:46:31;;;;;;;;;;;;;;;19.84;36.59;98646.16;4454682;32;34238;-81
2022/04/06 08:49:00;;;;;;;;;;;;;;;20.59;34.97;98634.84;4454891;32;33404;-82
2022/04/06 08:51:28;;;;;;;;;;;;;;;20.15;35.01;98647.75;4454760;32;33906;-82
2022/04/06 08:53:55;;;;;;;;;;;;;;;20.87;33.75;98632.91;4454541;32;34369;-81
2022/04/06 08:56:22;;;;;;;;;;;;;;;20.90;34.97;98632.78;4468603;32;35325;-81
2022/04/06 08:58:49;;;;;;;;;;;;;;;20.60;35.25;98633.91;4468602;32;34424;-83
2022/04/06 09:01:18;;;;;;;;;;;;;;;19.83;35.58;98639.19;4468222;32;35001;-82
2022/04/06 09:03:46;;;;;;;;;;;;;;;19.25;37.34;98635.75;4468590;32;34355;-87
2022/04/06 09:06:13;;;;;;;;;;;;;;;20.00;36.00;98636.00;4454491;32;34465;-87
2022/04/06 09:08:45;;;;;;;;;;;;;;;19.77;35.74;98626.22;4468221;32;33790;-81
2022/04/06 09:11:13;;;;;;;;;;;;;;;20.19;35.76;98620.41;4468475;32;35091;-82
2022/04/06 09:13:44;;;;;;;;;;;;;;;20.68;34.90;98623.94;4468880;32;33872;-82
2022/04/06 09:16:12;;;;;;;;;;;;;;;20.59;33.98;98611.13;4468431;32;34151;-81
2022/04/06 09:18:44;;;;;;;;;;;;;;;20.40;34.96;98614.41;4454342;32;34266;-84
2022/04/06 09:21:16;;;;;;;;;;;;;;;20.79;35.06;98621.78;4468365;32;34094;-85
2022/04/06 09:23:43;;;;;;;;;;;;;;;20.56;34.66;98617.34;4454489;32;34845;-82
2022/04/06 09:26:14;;;;;;;;;;;;;;;20.92;33.24;98614.28;4468623;32;34429;-81
2022/04/06 09:28:41;;;;;;;;;;;;;;;20.02;34.63;98623.63;4454400;32;33591;-81
2022/04/06 09:31:10;;;;;;;;;;;;;;;19.79;35.34;98616.53;4454480;32;34179;-81
2022/04/06 09:33:41;;;;;;;;;;;;;;;20.25;34.58;98620.19;4454437;32;34022;-81
2022/04/06 09:36:19;;;;;;;;;;;;;;;20.24;34.34;98610.59;4468160;32;34225;-89
2022/04/06 09:38:47;;;;;;;;;;;;;;;20.01;34.83;98618.44;4467557;32;33665;-87
2022/04/06 09:41:19;;;;;;;;;;;;;;;20.26;34.24;98606.13;4453721;32;34242;-82
2022/04/06 09:43:47;;;;;;;;;;;;;;;20.70;34.05;98589.66;4468565;32;33830;-81
2022/04/06 09:49:14;;;;;;;;;;;;;;;21.11;33.30;98590.72;4468299;32;33664;-80
2022/04/06 09:51:42;;;;;;;;;;;;;;;20.88;32.44;98594.25;4468065;32;34914;-81
2022/04/06 09:54:11;;;;;;;;;;;;;;;20.68;33.13;98587.06;4454323;32;34465;-81
2022/04/06 09:56:39;;;;;;;;;;;;;;;20.30;33.89;98577.91;4454401;32;35392;-82
2022/04/06 09:59:08;;;;;;;;;;;;;;;21.30;32.59;98569.75;4468138;32;33778;-81
2022/04/06 10:01:57;;;;;;;;;;;;;;;21.12;32.53;98569.56;4468510;32;34319;-83
2022/04/06 10:04:25;;;;;;;;;;;;;;;21.15;32.18;98571.22;4468534;32;34064;-81
2022/04/06 10:06:55;;;;;;;;;;;;;;;20.89;32.39;98567.81;4454602;32;34088;-82
2022/04/06 10:09:22;;;;;;;;;;;;;;;21.42;31.74;98568.44;4467919;32;34230;-81
2022/04/06 10:11:51;;;;;;;;;;;;;;;21.96;29.69;98556.47;4453685;32;34545;-88
2022/04/06 10:14:18;;;;;;;;;;;;;;;21.64;29.05;98553.44;4468106;32;35219;-81
2022/04/06 10:16:46;;;;;;;;;;;;;;;21.85;28.65;98563.06;4453907;32;34323;-81
2022/04/06 10:19:14;;;;;;;;;;;;;;;22.58;28.01;98542.31;4454215;32;33250;-81
2022/04/06 10:21:53;;;;;;;;;;;;;;;21.97;28.91;98545.00;4467952;32;34271;-81
2022/04/06 10:24:24;;;;;;;;;;;;;;;22.69;28.69;98549.72;4467785;32;35338;-81
2022/04/06 10:26:51;;;;;;;;;;;;;;;23.14;26.74;98546.72;4453995;32;35193;-81
2022/04/06 10:29:18;;;;;;;;;;;;;;;22.73;27.41;98543.34;4467982;32;34471;-81
2022/04/06 10:31:46;;;;;;;;;;;;;;;22.01;29.48;98533.38;4467904;32;34745;-81
2022/04/06 10:34:24;;;;;;;;;;;;;;;22.61;28.75;98536.84;4468206;32;34375;-83
2022/04/06 10:37:11;;;;;;;;;;;;;;;21.59;28.61;98539.56;4453946;32;34470;-84
2022/04/06 10:39:54;;;;;;;;;;;;;;;21.28;29.09;98535.53;4453923;32;34315;-86
2022/04/06 10:42:27;;;;;;;;;;;;;;;21.83;29.42;98529.78;4467771;32;35022;-82
2022/04/06 10:44:55;;;;;;;;;;;;;;;21.76;29.10;98526.53;4468116;32;34425;-82
2022/04/06 10:47:23;;;;;;;;;;;;;;;22.46;29.12;98532.28;4468001;32;34980;-87
2022/04/06 10:50:09;;;;;;;;;;;;;;;23.11;27.35;98527.50;4467665;32;33440;-89
2022/04/06 10:52:37;;;;;;;;;;;;;;;22.38;28.55;98521.22;4467825;32;34696;-82
2022/04/06 10:55:11;;;;;;;;;;;;;;;23.10;27.90;98526.62;4467534;32;34990;-81
2022/04/06 10:57:55;;;;;;;;;;;;;;;22.71;28.80;98519.66;4467878;32;35211;-81
2022/04/06 11:00:22;;;;;;;;;;;;;;;23.25;28.72;98520.59;4453547;32;34172;-86
2022/04/06 11:02:50;;;;;;;;;;;;;;;22.69;29.34;98518.88;4453667;32;34341;-82
2022/04/06 11:05:36;;;;;;;;;;;;;;;22.28;29.40;98503.16;4468034;32;35368;-81
2022/04/06 11:10:49;;;;;;;;;;;;;;;22.31;30.24;98505.66;4467457;32;34437;-81
2022/04/06 11:13:17;;;;;;;;;;;;;;;22.83;29.60;98500.56;4467834;32;34888;-81
2022/04/06 11:15:44;;;;;;;;;;;;;;;22.50;30.95;98494.22;4453544;32;34332;-81
2022/04/06 11:18:30;;;;;;;;;;;;;;;22.55;30.00;98489.59;4453667;32;34469;-81
2022/04/06 11:21:03;;;;;;;;;;;;;;;23.16;30.08;98488.47;4468022;32;33494;-81
2022/04/06 11:23:30;;;;;;;;;;;;;;;23.37;29.57;98470.66;4453976;32;34696;-82
2022/04/06 11:25:59;;;;;;;;;;;;;;;23.44;29.22;98470.28;4467690;32;35091;-81
2022/04/06 11:28:27;;;;;;;;;;;;;;;23.06;28.62;98480.12;4467786;32;35258;-87
2022/04/06 11:30:54;;;;;;;;;;;;;;;22.87;29.28;98479.28;4467512;32;33086;-81
2022/04/06 11:33:22;;;;;;;;;;;;;;;22.44;29.94;98471.59;4467583;32;33725;-81
2022/04/06 11:35:49;;;;;;;;;;;;;;;22.83;30.06;98463.56;4467588;32;34142;-81
2022/04/06 11:38:16;;;;;;;;;;;;;;;23.10;30.19;98465.81;4467637;32;35139;-81
2022/04/06 11:40:44;;;;;;;;;;;;;;;23.69;29.34;98447.91;4467233;32;33244;-81
2022/04/06 11:43:11;;;;;;;;;;;;;;;23.84;29.71;98446.25;4467429;32;34703;-81
2022/04/06 11:45:44;;;;;;;;;;;;;;;23.57;28.83;98443.22;4467406;32;34449;-81
2022/04/06 11:48:12;;;;;;;;;;;;;;;23.06;30.08;98448.41;4467456;32;34648;-80
2022/04/06 11:50:40;;;;;;;;;;;;;;;22.52;29.58;98440.41;4467219;32;33631;-81
2022/04/06 11:53:08;;;;;;;;;;;;;;;23.35;28.90;98427.59;4441064;32;33777;-89
2022/04/06 11:55:42;;;;;;;;;;;;;;;23.34;28.29;98420.59;4467363;32;33707;-81
2022/04/06 11:58:09;;;;;;;;;;;;;;;23.01;28.63;98419.56;4467347;32;34210;-81
2022/04/06 12:00:37;;;;;;;;;;;;;;;23.47;27.78;98417.22;4453231;32;33378;-81
2022/04/06 12:03:04;;;;;;;;;;;;;;;23.84;28.10;98409.19;4466350;32;34290;-82
2022/04/06 12:05:33;;;;;;;;;;;;;;;23.42;28.81;98406.03;4467503;32;34458;-82
2022/04/06 12:08:12;;;;;;;;;;;;;;;22.90;29.55;98395.41;4452975;32;34476;-81
2022/04/06 12:10:46;;;;;;;;;;;;;;;23.14;29.68;98389.84;4466922;32;35339;-82
2022/04/06 12:13:14;;;;;;;;;;;;;;;22.72;28.94;98399.81;4467362;32;34759;-82
2022/04/06 12:15:42;;;;;;;;;;;;;;;23.39;27.50;98381.53;4467281;32;35240;-81
2022/04/06 12:18:09;;;;;;;;;;;;;;;23.08;26.92;98388.38;4452958;32;34507;-82
2022/04/06 12:20:36;;;;;;;;;;;;;;;22.55;28.06;98381.28;4452914;32;33788;-81
2022/04/06 12:23:04;;;;;;;;;;;;;;;23.20;27.22;98369.25;4466935;32;34655;-81
2022/04/06 12:25:32;;;;;;;;;;;;;;;23.50;26.79;98358.03;4466726;32;34525;-81
2022/04/06 12:28:09;;;;;;;;;;;;;;;24.16;26.04;98363.28;4452786;32;34212;-81
2022/04/06 12:30:55;;;;;;;;;;;;;;;23.06;27.08;98363.81;4465674;32;33971;-81
2022/04/06 12:33:31;;;;;;;;;;;;;;;23.79;27.44;98357.34;4465339;32;34022;-81
2022/04/06 12:36:16;;;;;;;;;;;;;;;24.12;26.50;98356.44;4455786;32;33947;-81
2022/04/06 12:38:55;;;;;;;;;;;;;;;23.98;26.51;98348.38;4449417;32;34752;-81
2022/04/06 12:41:23;;;;;;;;;;;;;;;23.87;26.29;98334.91;4450557;32;33669;-82
2022/04/06 12:43:50;;;;;;;;;;;;;;;24.36;26.20;98333.03;4451185;32;34283;-85
2022/04/06 12:46:44;;;;;;;;;;;;;;;24.50;26.52;98341.06;4450995;32;34411;-81
2022/04/06 12:49:31;;;;;;;;;;;;;;;25.09;25.94;98324.44;4448888;32;35244;-82
2022/04/06 12:52:06;;;;;;;;;;;;;;;25.16;25.30;98313.38;4450809;32;33832;-81
2022/04/06 12:54:34;;;;;;;;;;;;;;;25.40;24.85;98316.34;4449703;32;34287;-81
2022/04/06 12:57:06;;;;;;;;;;;;;;;23.93;25.87;98313.38;4450732;32;34780;-81
2022/04/06 12:59:39;;;;;;;;;;;;;;;24.38;25.18;98315.25;4425827;32;793688;-83
2022/04/06 13:02:16;;;;;;;;;;;;;;;24.82;24.81;98303.06;4450560;32;33448;-81
2022/04/06 13:04:44;;;;;;;;;;;;;;;24.74;25.25;98301.72;4449430;32;34137;-81
2022/04/06 13:07:12;;;;;;;;;;;;;;;24.48;25.36;98294.41;4449173;32;35138;-81
2022/04/06 13:10:00;;;;;;;;;;;;;;;24.92;24.48;98288.28;4450518;32;34422;-81
2022/04/06 13:12:28;;;;;;;;;;;;;;;23.76;25.63;98286.06;4450647;32;33329;-81